createdAt,value
2019-04-05T00:04:34.752Z,0.49
2019-04-05T00:09:44.005Z,0.31
2019-04-05T00:14:53.211Z,0.33
2019-04-05T00:20:02.653Z,0.23
2019-04-05T00:25:11.859Z,0.32
2019-04-05T00:30:21.127Z,0.40
2019-04-05T00:35:30.361Z,0.32
2019-04-05T00:40:39.633Z,0.27
2019-04-05T00:45:48.822Z,0.27
2019-04-05T00:50:58.062Z,0.57
2019-04-05T00:56:07.261Z,0.92
2019-04-05T01:01:16.545Z,0.41
2019-04-05T01:06:25.768Z,0.36
2019-04-05T01:11:35.029Z,0.42
2019-04-05T01:16:44.274Z,0.28
2019-04-05T01:21:53.548Z,0.24
2019-04-05T01:27:02.719Z,0.37
2019-04-05T01:32:11.934Z,0.28
2019-04-05T01:37:21.109Z,0.25
2019-04-05T01:42:30.434Z,0.29
2019-04-05T01:47:39.798Z,0.41
2019-04-05T01:53:16.745Z,0.28
2019-04-05T01:58:15.917Z,0.25
2019-04-05T02:03:25.157Z,0.37
2019-04-05T02:08:34.496Z,0.42
2019-04-05T02:13:43.722Z,0.49
2019-04-05T02:18:52.934Z,0.49
2019-04-05T02:24:02.335Z,0.51
2019-04-05T02:29:11.615Z,0.46
2019-04-05T02:34:20.946Z,0.51
2019-04-05T02:39:30.216Z,0.69
2019-04-05T02:44:39.564Z,0.41
2019-04-05T02:49:48.819Z,0.35
2019-04-05T02:54:58.177Z,0.36
2019-04-05T03:00:07.381Z,0.61
2019-04-05T03:05:16.594Z,0.42
2019-04-05T03:10:25.765Z,0.35
2019-04-05T03:15:35.066Z,0.35
2019-04-05T03:20:44.327Z,0.44
2019-04-05T03:25:53.529Z,0.64
2019-04-05T03:31:02.827Z,0.27
2019-04-05T03:36:12.073Z,0.37
2019-04-05T03:41:21.282Z,0.35
2019-04-05T03:46:30.744Z,0.23
2019-04-05T03:51:40.051Z,0.34
2019-04-05T03:56:49.279Z,0.40
2019-04-05T04:01:58.580Z,0.52
2019-04-05T04:07:07.753Z,0.39
2019-04-05T04:12:16.974Z,0.29
2019-04-05T04:17:26.145Z,0.40
2019-04-05T04:22:35.550Z,0.33
2019-04-05T04:27:44.741Z,0.22
2019-04-05T04:32:54.013Z,0.46
2019-04-05T04:38:03.239Z,0.26
2019-04-05T04:43:12.571Z,0.63
2019-04-05T04:48:21.917Z,0.53
2019-04-05T04:53:31.396Z,0.49
2019-04-05T04:58:40.588Z,0.37
2019-04-05T05:03:50.011Z,0.42
2019-04-05T05:08:59.333Z,0.43
2019-04-05T05:14:08.877Z,0.54
2019-04-05T05:19:18.144Z,0.66
2019-04-05T05:24:27.795Z,0.70
2019-04-05T05:29:37.061Z,0.55
2019-04-05T05:34:46.534Z,0.39
2019-04-05T05:39:55.773Z,0.50
2019-04-05T05:45:05.186Z,0.38
2019-04-05T05:50:14.513Z,0.52
2019-04-05T05:55:24.022Z,0.42
2019-04-05T06:00:33.380Z,0.37
2019-04-05T06:05:42.834Z,0.42
2019-04-05T06:10:52.102Z,0.41
2019-04-05T06:16:01.533Z,0.38
2019-04-05T06:21:10.884Z,0.40
2019-04-05T06:26:20.370Z,0.45
2019-04-05T06:31:29.621Z,0.59
2019-04-05T06:36:39.005Z,0.41
2019-04-05T06:41:48.383Z,0.42
2019-04-05T06:46:57.720Z,0.45
2019-04-05T06:52:07.107Z,0.44
2019-04-05T06:57:16.412Z,0.35
2019-04-05T07:02:25.683Z,0.49
2019-04-05T07:07:35.029Z,0.44
2019-04-05T07:12:47.308Z,0.51
2019-04-05T07:17:54.194Z,0.52
2019-04-05T07:23:03.641Z,0.51
2019-04-05T07:28:12.917Z,0.41
2019-04-05T07:33:22.344Z,0.54
2019-04-05T07:38:31.621Z,0.52
2019-04-05T07:43:40.972Z,0.41
2019-04-05T07:48:50.182Z,0.62
2019-04-05T07:53:59.977Z,0.71
2019-04-05T07:59:09.417Z,0.69
2019-04-05T08:04:18.884Z,0.44
2019-04-05T08:09:28.089Z,0.46
2019-04-05T08:14:37.504Z,0.49
2019-04-05T08:19:46.771Z,0.53
2019-04-05T08:24:56.397Z,0.70
2019-04-05T08:30:05.657Z,0.54
2019-04-05T08:35:15.072Z,0.33
2019-04-05T08:40:24.284Z,0.43
2019-04-05T08:45:33.618Z,0.54
2019-04-05T08:50:42.875Z,0.52
2019-04-05T08:55:52.474Z,0.41
2019-04-05T09:01:01.765Z,0.58
2019-04-05T09:06:11.253Z,0.37
2019-04-05T09:11:20.747Z,0.22
2019-04-05T09:16:30.040Z,0.37
2019-04-05T09:21:40.706Z,0.39
2019-04-05T09:26:48.317Z,0.35
2019-04-05T09:31:57.607Z,0.55
2019-04-05T09:37:07.080Z,0.33
2019-04-05T09:42:16.353Z,0.32
2019-04-05T09:47:25.806Z,0.38
2019-04-05T09:52:35.061Z,0.39
2019-04-05T09:57:44.416Z,0.23
2019-04-05T10:02:53.679Z,0.23
2019-04-05T10:08:03.109Z,0.31
2019-04-05T10:13:12.403Z,0.64
2019-04-05T10:18:21.709Z,0.45
2019-04-05T10:23:31.072Z,0.46
2019-04-05T10:28:40.705Z,0.31
2019-04-05T10:33:50.195Z,0.37
2019-04-05T10:38:59.524Z,0.18
2019-04-05T10:44:09.271Z,0.29
2019-04-05T10:49:18.717Z,0.46
2019-04-05T10:54:28.233Z,0.22
2019-04-05T10:59:38.535Z,0.18
2019-04-05T11:04:46.495Z,0.35
2019-04-05T11:09:55.816Z,0.29
2019-04-05T11:15:05.204Z,0.27
2019-04-05T11:20:21.381Z,0.24
2019-04-05T11:25:23.313Z,0.15
2019-04-05T11:30:32.740Z,0.18
2019-04-05T11:35:42.210Z,0.15
2019-04-05T11:40:51.660Z,0.31
2019-04-05T11:46:00.937Z,0.29
2019-04-05T11:51:10.250Z,0.21
2019-04-05T11:56:20.464Z,0.18
2019-04-05T12:01:28.480Z,0.13
2019-04-05T12:06:37.853Z,0.18
2019-04-05T12:11:47.150Z,0.11
2019-04-05T12:16:56.729Z,0.36
2019-04-05T12:22:08.912Z,0.17
2019-04-05T12:27:15.141Z,0.18
2019-04-05T12:32:33.348Z,0.21
2019-04-05T12:37:33.467Z,0.18
2019-04-05T12:42:43.535Z,0.20
2019-04-05T12:47:51.502Z,0.23
2019-04-05T12:53:00.728Z,0.21
2019-04-05T12:58:10.083Z,0.25
2019-04-05T13:03:20.854Z,0.28
2019-04-05T13:08:27.970Z,0.31
2019-04-05T13:13:37.344Z,0.19
2019-04-05T13:18:46.706Z,0.20
2019-04-05T13:23:55.938Z,0.20
2019-04-05T13:29:05.300Z,0.14
2019-04-05T13:34:14.559Z,0.17
2019-04-05T13:39:23.942Z,0.25
2019-04-05T13:44:33.225Z,0.13
2019-04-05T13:49:42.554Z,0.21
2019-04-05T13:54:51.823Z,0.27
2019-04-05T14:00:01.069Z,0.24
2019-04-05T14:05:10.380Z,0.21
2019-04-05T14:10:19.853Z,0.30
2019-04-05T14:15:31.399Z,0.07
2019-04-05T14:20:38.091Z,0.20
2019-04-05T14:25:47.402Z,0.21
2019-04-05T14:30:56.637Z,0.17
2019-04-05T14:36:06.094Z,0.36
2019-04-05T14:41:15.379Z,0.25
2019-04-05T14:46:29.043Z,0.11
2019-04-05T14:51:26.589Z,0.18
2019-04-05T14:56:34.550Z,0.11
2019-04-05T15:01:44.673Z,0.16
2019-04-05T15:06:52.910Z,0.36
2019-04-05T15:12:02.098Z,0.19
2019-04-05T15:17:11.353Z,0.20
2019-04-05T15:22:20.662Z,0.18
2019-04-05T15:27:33.885Z,0.25
2019-04-05T15:32:33.997Z,0.13
2019-04-05T15:37:33.361Z,0.16
2019-04-05T15:42:45.869Z,0.14
2019-04-05T15:47:46.366Z,0.23
2019-04-05T15:52:47.252Z,0.14
2019-04-05T15:57:47.472Z,0.13
2019-04-05T16:02:46.862Z,0.20
2019-04-05T16:07:56.301Z,0.13
2019-04-05T16:13:07.953Z,0.15
2019-04-05T16:18:14.624Z,0.26
2019-04-05T16:23:24.187Z,0.29
2019-04-05T16:28:33.515Z,0.41
2019-04-05T16:33:42.902Z,0.29
2019-04-05T16:38:52.446Z,0.36
2019-04-05T16:44:05.180Z,0.27
2019-04-05T16:49:05.910Z,0.25
2019-04-05T16:54:05.906Z,0.27
2019-04-05T16:59:05.266Z,0.35
2019-04-05T17:04:15.147Z,0.32
2019-04-05T17:09:25.442Z,0.31
2019-04-05T17:14:24.713Z,0.33
2019-04-05T17:19:34.355Z,0.34
2019-04-05T17:24:43.626Z,0.26
2019-04-05T17:29:52.966Z,0.43
2019-04-05T17:35:01.785Z,0.25
2019-04-05T17:40:11.638Z,0.28
2019-04-05T17:45:22.155Z,0.42
2019-04-05T17:50:21.585Z,0.87
2019-04-05T17:55:30.950Z,1.30
2019-04-05T18:00:40.297Z,1.18
2019-04-05T18:05:49.638Z,0.69
2019-04-05T18:10:59.015Z,0.78
2019-04-05T18:16:10.006Z,0.64
2019-04-05T18:21:09.898Z,0.45
2019-04-05T18:26:19.184Z,0.44
2019-04-05T18:31:28.498Z,0.73
2019-04-05T18:36:37.529Z,0.34
2019-04-05T18:41:46.935Z,0.49
2019-04-05T18:46:56.161Z,0.48
2019-04-05T18:52:05.537Z,0.39
2019-04-05T18:57:14.901Z,0.36
2019-04-05T19:02:24.193Z,0.29
2019-04-05T19:07:33.517Z,0.33
2019-04-05T19:12:43.851Z,0.41
2019-04-05T19:17:43.111Z,0.41
2019-04-05T19:22:52.430Z,0.21
2019-04-05T19:28:01.659Z,0.34
2019-04-05T19:48:37.741Z,0.23
2019-04-05T19:53:46.957Z,0.43
2019-04-05T19:58:56.269Z,0.39
2019-04-05T20:04:05.605Z,0.27
2019-04-05T20:09:15.034Z,0.26
2019-04-05T20:14:24.366Z,0.49
2019-04-05T20:19:33.844Z,0.45
2019-04-05T20:24:43.259Z,0.40
2019-04-05T20:29:52.700Z,0.53
2019-04-05T20:35:01.949Z,0.34
2019-04-05T20:40:11.240Z,0.46
2019-04-05T20:45:20.510Z,0.38
2019-04-05T20:50:29.862Z,0.32
2019-04-05T20:55:39.272Z,0.26
2019-04-05T21:00:48.740Z,0.26
2019-04-05T21:05:58.034Z,0.41
2019-04-05T21:11:07.325Z,0.30
2019-04-05T21:16:16.713Z,0.38
2019-04-05T21:21:26.040Z,0.23
2019-04-05T21:26:36.198Z,0.24
2019-04-05T21:31:35.493Z,0.23
2019-04-05T21:36:44.824Z,0.32
2019-04-05T21:41:54.359Z,0.45
2019-04-05T21:47:03.585Z,0.40
2019-04-05T21:52:13.149Z,0.32
2019-04-05T21:57:22.407Z,0.28
2019-04-05T22:02:31.767Z,0.32
2019-04-05T22:07:40.961Z,0.22
2019-04-05T22:12:50.212Z,0.19
2019-04-05T22:17:59.393Z,0.23
2019-04-05T22:23:08.760Z,0.41
2019-04-05T22:28:18.048Z,0.32
2019-04-05T22:33:27.377Z,0.19
2019-04-05T22:38:36.577Z,0.24
2019-04-05T22:43:45.840Z,0.17
2019-04-05T22:48:55.014Z,0.25
2019-04-05T22:54:04.240Z,0.21
2019-04-05T22:59:13.417Z,0.32
2019-04-05T23:04:23.092Z,0.26
2019-04-05T23:09:32.373Z,0.20
2019-04-05T23:14:41.796Z,0.17
2019-04-05T23:19:51.032Z,0.38
2019-04-05T23:25:00.289Z,0.23
2019-04-05T23:30:09.485Z,0.22
2019-04-05T23:35:18.975Z,0.21
2019-04-05T23:40:28.173Z,0.22
2019-04-05T23:45:37.522Z,0.34
2019-04-05T23:50:46.693Z,0.20
2019-04-05T23:55:55.914Z,0.16
